sensor_id;sensor_type;location;lat;lon;timestamp;P1;durP1;ratioP1;P2;durP2;ratioP2
71821;SDS011;64096;52.548;13.406;2023-03-02T06:03:23;28.48;;;16.15;;
71821;SDS011;64096;52.548;13.406;2023-03-02T06:05:49;32.35;;;18.05;;
71821;SDS011;64096;52.548;13.406;2023-03-02T06:08:16;28.42;;;16.65;;
71821;SDS011;64096;52.548;13.406;2023-03-02T06:10:43;30.15;;;16.58;;
71821;SDS011;64096;52.548;13.406;2023-03-02T06:13:09;28.48;;;16.67;;
71821;SDS011;64096;52.548;13.406;2023-03-02T06:15:35;26.83;;;16.58;;
71821;SDS011;64096;52.548;13.406;2023-03-02T06:18:03;26.92;;;16.05;;
71821;SDS011;64096;52.548;13.406;2023-03-02T06:20:29;27.27;;;16.00;;
71821;SDS011;64096;52.548;13.406;2023-03-02T06:22:55;27.17;;;14.90;;
71821;SDS011;64096;52.548;13.406;2023-03-02T06:25:22;27.92;;;15.77;;
71821;SDS011;64096;52.548;13.406;2023-03-02T06:27:49;30.65;;;17.20;;
71821;SDS011;64096;52.548;13.406;2023-03-02T06:30:17;30.85;;;17.40;;
71821;SDS011;64096;52.548;13.406;2023-03-02T06:32:43;30.52;;;17.10;;
71821;SDS011;64096;52.548;13.406;2023-03-02T06:35:10;29.40;;;17.08;;
71821;SDS011;64096;52.548;13.406;2023-03-02T06:37:36;25.95;;;13.90;;
71821;SDS011;64096;52.548;13.406;2023-03-02T06:40:02;29.25;;;15.82;;
71821;SDS011;64096;52.548;13.406;2023-03-02T06:42:36;27.90;;;15.38;;
71821;SDS011;64096;52.548;13.406;2023-03-02T06:45:03;28.63;;;16.30;;
71821;SDS011;64096;52.548;13.406;2023-03-02T06:47:30;27.88;;;15.65;;
71821;SDS011;64096;52.548;13.406;2023-03-02T06:49:57;22.30;;;13.10;;
71821;SDS011;64096;52.548;13.406;2023-03-02T06:52:24;22.25;;;12.25;;
71821;SDS011;64096;52.548;13.406;2023-03-02T06:54:51;22.08;;;12.55;;
71821;SDS011;64096;52.548;13.406;2023-03-02T06:57:17;22.92;;;12.85;;
71821;SDS011;64096;52.548;13.406;2023-03-02T06:59:43;23.80;;;13.43;;
71821;SDS011;64096;52.548;13.406;2023-03-02T07:02:10;20.80;;;12.63;;
71821;SDS011;64096;52.548;13.406;2023-03-02T07:04:36;24.15;;;14.75;;
71821;SDS011;64096;52.548;13.406;2023-03-02T07:07:02;23.23;;;14.20;;
71821;SDS011;64096;52.548;13.406;2023-03-02T07:09:32;26.92;;;15.23;;
71821;SDS011;64096;52.548;13.406;2023-03-02T07:11:59;26.77;;;14.98;;
71821;SDS011;64096;52.548;13.406;2023-03-02T07:14:25;27.75;;;15.95;;
71821;SDS011;64096;52.548;13.406;2023-03-02T07:16:51;24.98;;;13.80;;
71821;SDS011;64096;52.548;13.406;2023-03-02T07:19:17;24.70;;;13.85;;
71821;SDS011;64096;52.548;13.406;2023-03-02T07:21:44;27.42;;;14.88;;
71821;SDS011;64096;52.548;13.406;2023-03-02T07:24:11;23.80;;;14.38;;
71821;SDS011;64096;52.548;13.406;2023-03-02T07:26:40;26.58;;;15.63;;
71821;SDS011;64096;52.548;13.406;2023-03-02T07:29:06;26.30;;;14.85;;
71821;SDS011;64096;52.548;13.406;2023-03-02T07:31:32;26.10;;;13.98;;
71821;SDS011;64096;52.548;13.406;2023-03-02T07:33:58;25.55;;;14.95;;
71821;SDS011;64096;52.548;13.406;2023-03-02T07:36:25;24.77;;;13.43;;
71821;SDS011;64096;52.548;13.406;2023-03-02T07:38:51;28.25;;;15.13;;
71821;SDS011;64096;52.548;13.406;2023-03-02T07:41:17;24.38;;;14.15;;
71821;SDS011;64096;52.548;13.406;2023-03-02T07:43:43;26.40;;;15.32;;
71821;SDS011;64096;52.548;13.406;2023-03-02T07:46:09;29.80;;;16.90;;
71821;SDS011;64096;52.548;13.406;2023-03-02T07:48:35;25.98;;;14.48;;
71821;SDS011;64096;52.548;13.406;2023-03-02T07:51:02;26.98;;;15.57;;
71821;SDS011;64096;52.548;13.406;2023-03-02T07:53:28;32.35;;;16.42;;
71821;SDS011;64096;52.548;13.406;2023-03-02T07:55:55;28.77;;;16.05;;
71821;SDS011;64096;52.548;13.406;2023-03-02T07:58:21;24.13;;;14.10;;
71821;SDS011;64096;52.548;13.406;2023-03-02T08:00:48;25.42;;;14.13;;
71821;SDS011;64096;52.548;13.406;2023-03-02T08:03:14;26.63;;;14.25;;
71821;SDS011;64096;52.548;13.406;2023-03-02T08:05:40;28.63;;;14.70;;
71821;SDS011;64096;52.548;13.406;2023-03-02T08:08:06;28.65;;;16.58;;
71821;SDS011;64096;52.548;13.406;2023-03-02T08:10:33;30.83;;;18.15;;
71821;SDS011;64096;52.548;13.406;2023-03-02T08:12:59;32.03;;;18.52;;
71821;SDS011;64096;52.548;13.406;2023-03-02T08:15:26;27.95;;;16.92;;
71821;SDS011;64096;52.548;13.406;2023-03-02T08:17:52;27.55;;;15.55;;
71821;SDS011;64096;52.548;13.406;2023-03-02T08:20:18;25.58;;;15.02;;
71821;SDS011;64096;52.548;13.406;2023-03-02T08:22:44;22.63;;;13.77;;
71821;SDS011;64096;52.548;13.406;2023-03-02T08:25:10;24.63;;;14.13;;
71821;SDS011;64096;52.548;13.406;2023-03-02T08:27:36;26.55;;;14.43;;
71821;SDS011;64096;52.548;13.406;2023-03-02T08:30:05;25.08;;;14.85;;
71821;SDS011;64096;52.548;13.406;2023-03-02T08:32:32;24.90;;;14.45;;
71821;SDS011;64096;52.548;13.406;2023-03-02T08:34:58;26.15;;;14.55;;
71821;SDS011;64096;52.548;13.406;2023-03-02T08:37:24;25.52;;;15.13;;
71821;SDS011;64096;52.548;13.406;2023-03-02T08:39:51;26.45;;;15.38;;
71821;SDS011;64096;52.548;13.406;2023-03-02T08:42:17;26.45;;;15.88;;
71821;SDS011;64096;52.548;13.406;2023-03-02T08:44:43;25.92;;;15.57;;
71821;SDS011;64096;52.548;13.406;2023-03-02T08:47:09;26.15;;;15.90;;
71821;SDS011;64096;52.548;13.406;2023-03-02T08:49:35;28.10;;;16.70;;
71821;SDS011;64096;52.548;13.406;2023-03-02T08:52:05;30.27;;;18.83;;
71821;SDS011;64096;52.548;13.406;2023-03-02T08:54:31;23.88;;;15.75;;
71821;SDS011;64096;52.548;13.406;2023-03-02T08:57:01;24.73;;;15.05;;
71821;SDS011;64096;52.548;13.406;2023-03-02T08:59:27;23.80;;;14.55;;
71821;SDS011;64096;52.548;13.406;2023-03-02T09:01:54;23.73;;;13.80;;
71821;SDS011;64096;52.548;13.406;2023-03-02T09:04:20;24.02;;;15.05;;
71821;SDS011;64096;52.548;13.406;2023-03-02T09:06:46;27.42;;;17.73;;
71821;SDS011;64096;52.548;13.406;2023-03-02T09:09:13;27.50;;;15.70;;
71821;SDS011;64096;52.548;13.406;2023-03-02T09:11:39;26.27;;;15.35;;
71821;SDS011;64096;52.548;13.406;2023-03-02T09:14:06;24.35;;;15.10;;
71821;SDS011;64096;52.548;13.406;2023-03-02T09:16:32;25.90;;;16.10;;
71821;SDS011;64096;52.548;13.406;2023-03-02T09:18:58;25.75;;;16.98;;
71821;SDS011;64096;52.548;13.406;2023-03-02T09:21:24;28.38;;;18.23;;
71821;SDS011;64096;52.548;13.406;2023-03-02T09:23:50;27.65;;;16.17;;
71821;SDS011;64096;52.548;13.406;2023-03-02T09:26:22;26.02;;;16.05;;
71821;SDS011;64096;52.548;13.406;2023-03-02T09:28:48;27.00;;;16.48;;
71821;SDS011;64096;52.548;13.406;2023-03-02T09:31:14;25.08;;;15.02;;
71821;SDS011;64096;52.548;13.406;2023-03-02T09:33:40;24.60;;;15.88;;
71821;SDS011;64096;52.548;13.406;2023-03-02T09:36:07;23.23;;;14.77;;
71821;SDS011;64096;52.548;13.406;2023-03-02T09:38:34;25.02;;;15.48;;
71821;SDS011;64096;52.548;13.406;2023-03-02T09:41:11;26.60;;;16.50;;
71821;SDS011;64096;52.548;13.406;2023-03-02T09:43:46;26.10;;;15.70;;
71821;SDS011;64096;52.548;13.406;2023-03-02T09:46:36;24.05;;;15.32;;
71821;SDS011;64096;52.548;13.406;2023-03-02T09:51:35;24.60;;;16.17;;
71821;SDS011;64096;52.548;13.406;2023-03-02T09:54:09;21.20;;;14.02;;
71821;SDS011;64096;52.548;13.406;2023-03-02T09:56:36;22.05;;;14.80;;
71821;SDS011;64096;52.548;13.406;2023-03-02T09:59:12;24.10;;;15.57;;
71821;SDS011;64096;52.548;13.406;2023-03-02T10:01:45;22.40;;;14.77;;
71821;SDS011;64096;52.548;13.406;2023-03-02T10:04:57;21.33;;;13.82;;
71821;SDS011;64096;52.548;13.406;2023-03-02T10:07:09;20.55;;;13.57;;
71821;SDS011;64096;52.548;13.406;2023-03-02T10:09:36;21.13;;;14.15;;
71821;SDS011;64096;52.548;13.406;2023-03-02T10:14:33;24.77;;;15.68;;
71821;SDS011;64096;52.548;13.406;2023-03-02T10:22:00;21.02;;;14.07;;
71821;SDS011;64096;52.548;13.406;2023-03-02T10:27:43;22.10;;;14.10;;
71821;SDS011;64096;52.548;13.406;2023-03-02T10:32:44;21.02;;;12.93;;
71821;SDS011;64096;52.548;13.406;2023-03-02T10:35:13;18.98;;;12.70;;
71821;SDS011;64096;52.548;13.406;2023-03-02T10:37:40;22.52;;;14.13;;
71821;SDS011;64096;52.548;13.406;2023-03-02T10:40:12;22.48;;;14.25;;
71821;SDS011;64096;52.548;13.406;2023-03-02T10:42:47;21.80;;;14.30;;
71821;SDS011;64096;52.548;13.406;2023-03-02T10:47:39;19.52;;;13.27;;
71821;SDS011;64096;52.548;13.406;2023-03-02T10:50:18;19.40;;;13.95;;
71821;SDS011;64096;52.548;13.406;2023-03-02T10:52:47;21.67;;;14.52;;
71821;SDS011;64096;52.548;13.406;2023-03-02T10:55:17;22.27;;;13.88;;
71821;SDS011;64096;52.548;13.406;2023-03-02T10:57:43;20.80;;;13.90;;
71821;SDS011;64096;52.548;13.406;2023-03-02T11:02:46;20.08;;;13.55;;
71821;SDS011;64096;52.548;13.406;2023-03-02T11:07:50;17.23;;;11.70;;
71821;SDS011;64096;52.548;13.406;2023-03-02T11:10:17;19.08;;;12.88;;
71821;SDS011;64096;52.548;13.406;2023-03-02T11:12:45;18.45;;;12.07;;
71821;SDS011;64096;52.548;13.406;2023-03-02T11:15:22;15.48;;;10.73;;
71821;SDS011;64096;52.548;13.406;2023-03-02T11:18:10;17.05;;;11.43;;
71821;SDS011;64096;52.548;13.406;2023-03-02T11:20:40;16.95;;;12.05;;
71821;SDS011;64096;52.548;13.406;2023-03-02T11:25:39;18.52;;;12.57;;
71821;SDS011;64096;52.548;13.406;2023-03-02T11:28:16;18.00;;;12.23;;
71821;SDS011;64096;52.548;13.406;2023-03-02T11:30:46;18.17;;;12.63;;
71821;SDS011;64096;52.548;13.406;2023-03-02T11:33:22;19.90;;;13.60;;
71821;SDS011;64096;52.548;13.406;2023-03-02T11:35:53;18.92;;;12.43;;
71821;SDS011;64096;52.548;13.406;2023-03-02T11:38:27;20.38;;;13.15;;
71821;SDS011;64096;52.548;13.406;2023-03-02T11:40:56;18.52;;;13.07;;
71821;SDS011;64096;52.548;13.406;2023-03-02T11:43:23;17.27;;;12.10;;
71821;SDS011;64096;52.548;13.406;2023-03-02T11:45:59;18.58;;;12.70;;
71821;SDS011;64096;52.548;13.406;2023-03-02T11:51:10;18.20;;;12.65;;
71821;SDS011;64096;52.548;13.406;2023-03-02T11:53:40;17.73;;;12.23;;
71821;SDS011;64096;52.548;13.406;2023-03-02T11:56:08;17.73;;;12.73;;
71821;SDS011;64096;52.548;13.406;2023-03-02T11:58:34;20.65;;;14.52;;
71821;SDS011;64096;52.548;13.406;2023-03-02T12:01:01;17.67;;;12.70;;
71821;SDS011;64096;52.548;13.406;2023-03-02T12:08:42;17.98;;;12.10;;
71821;SDS011;64096;52.548;13.406;2023-03-02T12:13:45;17.27;;;12.57;;
71821;SDS011;64096;52.548;13.406;2023-03-02T12:18:45;17.52;;;11.40;;
71821;SDS011;64096;52.548;13.406;2023-03-02T12:21:13;17.45;;;11.70;;
71821;SDS011;64096;52.548;13.406;2023-03-02T12:28:58;18.50;;;12.17;;
71821;SDS011;64096;52.548;13.406;2023-03-02T12:31:25;18.17;;;13.27;;
71821;SDS011;64096;52.548;13.406;2023-03-02T12:33:51;19.95;;;13.63;;
71821;SDS011;64096;52.548;13.406;2023-03-02T12:36:31;17.85;;;11.73;;
71821;SDS011;64096;52.548;13.406;2023-03-02T12:39:18;17.10;;;11.45;;
71821;SDS011;64096;52.548;13.406;2023-03-02T12:42:00;19.52;;;13.23;;
71821;SDS011;64096;52.548;13.406;2023-03-02T12:44:34;18.10;;;11.98;;
71821;SDS011;64096;52.548;13.406;2023-03-02T12:47:43;19.40;;;12.27;;
71821;SDS011;64096;52.548;13.406;2023-03-02T12:50:16;18.92;;;12.32;;
71821;SDS011;64096;52.548;13.406;2023-03-02T12:52:43;16.88;;;11.93;;
71821;SDS011;64096;52.548;13.406;2023-03-02T12:55:17;19.63;;;12.93;;
71821;SDS011;64096;52.548;13.406;2023-03-02T12:57:54;19.30;;;13.07;;
71821;SDS011;64096;52.548;13.406;2023-03-02T13:00:22;17.92;;;12.23;;
71821;SDS011;64096;52.548;13.406;2023-03-02T13:02:50;17.77;;;11.90;;
71821;SDS011;64096;52.548;13.406;2023-03-02T13:05:20;19.98;;;11.68;;
71821;SDS011;64096;52.548;13.406;2023-03-02T13:07:57;15.93;;;11.23;;
71821;SDS011;64096;52.548;13.406;2023-03-02T13:10:26;17.08;;;11.93;;
71821;SDS011;64096;52.548;13.406;2023-03-02T13:12:52;15.43;;;10.98;;
71821;SDS011;64096;52.548;13.406;2023-03-02T13:15:19;15.23;;;10.68;;
71821;SDS011;64096;52.548;13.406;2023-03-02T13:17:51;14.90;;;10.73;;
71821;SDS011;64096;52.548;13.406;2023-03-02T13:20:17;15.73;;;11.25;;
71821;SDS011;64096;52.548;13.406;2023-03-02T13:22:45;14.57;;;10.68;;
71821;SDS011;64096;52.548;13.406;2023-03-02T13:25:22;15.20;;;10.98;;
71821;SDS011;64096;52.548;13.406;2023-03-02T13:28:01;15.10;;;9.95;;
71821;SDS011;64096;52.548;13.406;2023-03-02T13:30:54;14.18;;;10.50;;
71821;SDS011;64096;52.548;13.406;2023-03-02T13:33:21;14.65;;;10.65;;
71821;SDS011;64096;52.548;13.406;2023-03-02T13:35:48;16.05;;;10.48;;
71821;SDS011;64096;52.548;13.406;2023-03-02T13:38:18;14.07;;;10.10;;
71821;SDS011;64096;52.548;13.406;2023-03-02T13:40:48;14.48;;;10.27;;
71821;SDS011;64096;52.548;13.406;2023-03-02T13:43:37;13.02;;;8.93;;
71821;SDS011;64096;52.548;13.406;2023-03-02T13:48:32;11.93;;;8.65;;
71821;SDS011;64096;52.548;13.406;2023-03-02T13:51:18;13.57;;;9.30;;
71821;SDS011;64096;52.548;13.406;2023-03-02T13:53:52;13.15;;;8.90;;
71821;SDS011;64096;52.548;13.406;2023-03-02T13:56:18;11.93;;;8.27;;
71821;SDS011;64096;52.548;13.406;2023-03-02T13:58:47;11.48;;;8.18;;
